Terminal Aerodrome Forecast
Issued by NWS

Home | Current Version | Previous Version | Graphics & Text | Print | Product List | Glossary Off
Versions: 1 2 3 4 5 6 7 8 9 10 11 12 13 14 15 16 17 18 19 20 21 22 23 24 25 26 27 28 29 30 31 32 33 34 35

000
FTUS43 KLOT 310800 AAA
TAFMDW
TAF AMD
KMDW 310833Z 3109/0106 21006KT P6SM OVC100
     FM311500 23010KT P6SM FEW150 BKN250
     FM311700 25010KT P6SM BKN040 BKN150
     FM312300 26007KT P6SM OVC025
     FM010200 02005KT 1 1/2SM -SN SCT007 OVC015=

USA.gov is the U.S. government's official web portal to all federal, state and local government web resources and services.